Flight Track Log - Related Links

Times and Time Zones

All times are in EDT time to prevent confusion due to time zone crossing. See the N957AN flight status page for this flight to view local times or setup timezone preferences in your user account.

Time Position Orientation Groundspeed Altitude Reporting Facility
EDT Latitude Longitude Course Direction KTS MPH feet Rate Location/Type
Sun 09:06:15 PM 32.8833 -97.0500 294° West 162 186 1,300  Level Dallas / Fort Worth TRACON
Sun 09:07:39 PM 32.8000 -97.0667 190° South 230 265 3,400 1,821 Climbing Dallas / Fort Worth TRACON
Sun 09:08:00 PM 32.8042 -97.3176 298° West  Level FlightAware Approximate
Sun 09:08:40 PM 32.7667 -97.1333 239° Southwest 258 297 5,700  Level Dallas / Fort Worth TRACON
Sun 09:09:00 PM 32.8565 -97.4411 296° West  Level FlightAware Approximate
Sun 09:09:39 PM 32.7667 -97.2167 270° West 277 319 7,800  Level Dallas / Fort Worth TRACON
Sun 09:10:00 PM 32.9055 -97.5665 292° West  Level FlightAware Approximate
Sun 09:10:54 PM 32.8103 -97.3319 294° West 454 522 10,600  Level Fort Worth Center
Sun 09:11:00 PM 32.9518 -97.6935 294° West  Level FlightAware Approximate
Sun 09:11:54 PM 32.8481 -97.4183 298° West 374 430 12,200  Level Fort Worth Center
Sun 09:12:54 PM 32.8958 -97.5322 297° West 342 394 15,000 2,500 Climbing Fort Worth Center
Sun 09:13:54 PM 32.9417 -97.6461 296° West 356 410 17,200 2,350 Climbing Fort Worth Center
Sun 09:14:54 PM 32.9831 -97.7650 293° West 380 437 19,700 2,250 Climbing Fort Worth Center
Sun 09:15:54 PM 33.0056 -97.8964 282° West 391 450 21,700 1,900 Climbing Fort Worth Center
Sun 09:16:54 PM 33.0239 -98.0231 280° West 417 480 23,500 1,850 Climbing Fort Worth Center
Sun 09:17:54 PM 33.0481 -98.1644 282° West 432 497 25,400 1,700 Climbing Fort Worth Center
Sun 09:18:54 PM 33.0681 -98.3058 280° West 432 497 26,900 1,550 Climbing Fort Worth Center
Sun 09:19:54 PM 33.0900 -98.4525 280° West 444 511 28,500 1,650 Climbing Fort Worth Center
Sun 09:20:54 PM 33.1117 -98.5914 281° West 439 505 30,200 1,600 Climbing Fort Worth Center
Sun 09:21:54 PM 33.1333 -98.7356 280° West 444 511 31,700 1,500 Climbing Fort Worth Center
Sun 09:22:54 PM 33.1547 -98.8775 280° West 444 511 33,200 1,350 Climbing Fort Worth Center
Sun 09:23:54 PM 33.1758 -99.0167 280° West 444 511 34,400 1,000 Climbing Fort Worth Center
Sun 09:24:54 PM 33.2219 -99.1492 293° West 437 503 35,200 1,000 Climbing Fort Worth Center
Sun 09:25:54 PM 33.2828 -99.2747 300° West 430 495 36,400 1,100 Climbing Fort Worth Center
Sun 09:26:54 PM 33.3414 -99.4003 299° West 430 495 37,400 800 Climbing Fort Worth Center
Sun 09:27:54 PM 33.3978 -99.5258 298° West 430 495 38,000 300 Climbing Fort Worth Center
Sun 09:28:54 PM 33.4583 -99.6519 300° West 430 495 38,000  Level Fort Worth Center
Sun 09:29:54 PM 33.5144 -99.7753 299° West 435 501 38,000  Level Fort Worth Center
Sun 09:30:54 PM 33.5706 -99.9014 298° West 435 501 38,000  Level Fort Worth Center
Sun 09:31:54 PM 33.6306 -100.0253 300° West 435 501 38,000  Level Fort Worth Center
Sun 09:32:54 PM 33.6842 -100.1519 297° West 435 501 38,000  Level Fort Worth Center
Sun 09:33:54 PM 33.7442 -100.2761 300° West 435 501 38,000  Level Fort Worth Center
Sun 09:34:54 PM 33.8017 -100.4056 298° West 435 501 38,000  Level Fort Worth Center
Sun 09:35:54 PM 33.8589 -100.5300 299° West 435 501 38,000  Level Fort Worth Center
Sun 09:36:54 PM 33.9142 -100.6619 297° West 435 501 38,000  Level Fort Worth Center
Sun 09:37:55 PM 33.9714 -100.7869 299° West 435 501 38,000  Level Fort Worth Center
Sun 09:38:54 PM 34.0283 -100.9119 299° West 435 501 38,000  Level Fort Worth Center
Sun 09:39:54 PM 34.0875 -101.0372 300° West 435 501 38,000  Level Fort Worth Center
Sun 09:40:54 PM 34.1458 -101.1778 297° West 435 501 38,000  Level Fort Worth Center
Sun 09:43:16 PM 34.2708 -101.4564 299° West 426 490 38,000  Level Albuquerque Center
Sun 09:44:17 PM 34.3278 -101.5847 298° West 430 495 38,000  Level Albuquerque Center
Sun 09:45:18 PM 34.3836 -101.7139 298° West 432 497 38,000  Level Albuquerque Center
Sun 09:46:20 PM 34.4517 -101.8711 298° West 436 502 38,000  Level Albuquerque Center
Sun 09:47:21 PM 34.5081 -102.0028 297° West 438 504 38,000  Level Albuquerque Center
Sun 09:48:22 PM 34.5642 -102.1339 297° West 437 503 38,000  Level Albuquerque Center
Sun 09:49:24 PM 34.6203 -102.2656 297° West 438 504 38,000  Level Albuquerque Center
Sun 09:50:25 PM 34.6778 -102.3972 298° West 439 505 38,000  Level Albuquerque Center
Sun 09:51:26 PM 34.7331 -102.5283 297° West 437 503 38,000  Level Albuquerque Center
Sun 09:52:28 PM 34.7886 -102.6592 297° West 435 501 38,000  Level Albuquerque Center
Sun 09:53:29 PM 34.8450 -102.7911 298° West 435 501 38,000  Level Albuquerque Center
Sun 09:54:30 PM 34.9014 -102.9236 297° West 436 502 38,000  Level Albuquerque Center
Sun 09:55:32 PM 34.9567 -103.0561 297° West 434 499 38,000  Level Albuquerque Center
Sun 09:56:33 PM 35.0117 -103.1889 297° West 436 502 38,000  Level Albuquerque Center
Sun 09:57:34 PM 35.0672 -103.3211 297° West 435 501 38,000  Level Albuquerque Center
Sun 09:58:35 PM 35.1311 -103.4753 297° West 434 499 38,000  Level Albuquerque Center
Sun 09:59:37 PM 35.1861 -103.6078 297° West 435 501 38,000  Level Albuquerque Center
Sun 10:00:38 PM 35.2297 -103.7472 291° West 437 503 38,000  Level Albuquerque Center
Sun 10:01:39 PM 35.2739 -103.8853 291° West 435 501 38,000  Level Albuquerque Center
Sun 10:02:40 PM 35.3156 -104.0208 291° West 439 505 38,000  Level Albuquerque Center
Sun 10:03:42 PM 35.3606 -104.1606 292° West 434 499 38,000  Level Albuquerque Center
Sun 10:04:43 PM 35.4014 -104.2983 290° West 434 499 38,000  Level Albuquerque Center
Sun 10:05:44 PM 35.4442 -104.4367 291° West 433 498 38,000  Level Albuquerque Center
Sun 10:06:46 PM 35.4869 -104.5761 291° West 435 501 38,000  Level Albuquerque Center
Sun 10:07:47 PM 35.5369 -104.7394 291° West 436 502 38,000  Level Albuquerque Center
Sun 10:08:48 PM 35.5797 -104.8792 291° West 435 501 38,000  Level Albuquerque Center
Sun 10:09:50 PM 35.6217 -105.0203 290° West 436 502 38,000  Level Albuquerque Center
Sun 10:10:51 PM 35.6644 -105.1572 291° West 429 494 38,000  Level Albuquerque Center
Sun 10:11:52 PM 35.7150 -105.2906 295° West 427 491 38,000  Level Albuquerque Center
Sun 10:12:54 PM 35.7667 -105.4225 296° West 425 489 38,000  Level Albuquerque Center
Sun 10:13:55 PM 35.8172 -105.5556 295° West 426 490 38,000  Level Albuquerque Center
Sun 10:14:56 PM 35.8681 -105.6858 296° West 424 488 38,000  Level Albuquerque Center
Sun 10:15:58 PM 35.9181 -105.8161 295° West 422 486 38,000  Level Albuquerque Center
Sun 10:16:59 PM 35.9667 -105.9475 295° West 423 487 38,000  Level Albuquerque Center
Sun 10:18:00 PM 36.0172 -106.0800 295° West 426 490 38,000  Level Albuquerque Center
Sun 10:19:02 PM 36.0664 -106.2122 295° West 425 489 38,000  Level Albuquerque Center
Sun 10:20:03 PM 36.1167 -106.3467 295° West 431 496 38,000  Level Albuquerque Center
Sun 10:21:04 PM 36.1775 -106.5125 294° West 426 490 38,000  Level Albuquerque Center
Sun 10:22:06 PM 36.2247 -106.6397 295° West 426 490 38,000  Level Albuquerque Center
Sun 10:23:07 PM 36.2717 -106.7686 294° West 427 491 38,000  Level Albuquerque Center
Sun 10:24:08 PM 36.3272 -106.9172 295° West 427 491 38,000  Level Albuquerque Center
Sun 10:25:10 PM 36.3731 -107.0447 294° West 425 489 38,000  Level Albuquerque Center
Sun 10:25:51 PM 36.4042 -107.1278 295° West 423 487 38,000  Level Denver Center
Sun 10:26:52 PM 36.4572 -107.2758 294° West 421 484 38,000  Level Denver Center
Sun 10:27:54 PM 36.5006 -107.4014 293° West 417 480 38,000  Level Denver Center
Sun 10:28:56 PM 36.5539 -107.5506 294° West 422 486 38,000  Level Denver Center
Sun 10:29:57 PM 36.6006 -107.6775 295° West 423 487 38,000  Level Denver Center
Sun 10:30:59 PM 36.6525 -107.8256 294° West 420 483 38,000  Level Denver Center
Sun 10:32:00 PM 36.6981 -107.9531 294° West 420 483 38,000  Level Denver Center
Sun 10:33:02 PM 36.7422 -108.0828 293° West 425 489 38,000  Level Denver Center
Sun 10:34:04 PM 36.7958 -108.2328 294° West 426 490 38,000  Level Denver Center
Sun 10:35:05 PM 36.8422 -108.3622 294° West 427 491 38,000  Level Denver Center
Sun 10:36:19 PM 36.8950 -108.5156 293° West 432 497 38,000  Level Denver Center
Sun 10:37:20 PM 36.9486 -108.6664 294° West 428 493 38,000  Level Denver Center
Sun 10:38:34 PM 37.0011 -108.8167 294° West 426 490 38,000  Level Denver Center
Sun 10:39:36 PM 37.0617 -108.9897 294° West 425 489 38,000  Level Denver Center
Sun 10:40:37 PM 37.1064 -109.1183 294° West 423 487 38,000  Level Denver Center
Sun 10:41:39 PM 37.1492 -109.2492 292° West 424 488 38,000  Level Denver Center
Sun 10:42:40 PM 37.2017 -109.3981 294° West 420 483 38,000  Level Denver Center
Sun 10:43:42 PM 37.2450 -109.5267 293° West 420 483 38,000  Level Denver Center
Sun 10:44:43 PM 37.2956 -109.6772 293° West 420 483 38,000  Level Denver Center
Sun 10:45:44 PM 37.3403 -109.8039 294° West 417 480 38,000  Level Denver Center
Sun 10:46:46 PM 37.3897 -109.9550 292° West 418 481 38,000  Level Denver Center
Sun 10:47:47 PM 37.4328 -110.0828 293° West 416 479 38,000  Level Denver Center
Sun 10:48:49 PM 37.4778 -110.2164 293° West 415 478 38,000  Level Denver Center
Sun 10:49:50 PM 37.5250 -110.3597 293° West 413 475 38,000  Level Denver Center
Sun 10:50:52 PM 37.5678 -110.4886 293° West 416 479 38,000  Level Denver Center
Sun 10:51:53 PM 37.6108 -110.6208 292° West 420 483 38,000  Level Denver Center
Sun 10:52:54 PM 37.6556 -110.7564 293° West 422 486 38,000  Level Denver Center
Sun 10:53:56 PM 37.6858 -110.9256 283° West 413 475 38,000  Level Denver Center
Sun 10:54:57 PM 37.7111 -111.0667 283° West 413 475 38,000  Level Denver Center
Sun 10:55:54 PM 37.7297 -111.1794 282° West 413 475 38,000  Level Salt Lake Center
Sun 10:56:55 PM 37.7592 -111.3483 282° West 412 474 38,000  Level Salt Lake Center
Sun 10:57:56 PM 37.7858 -111.4917 283° West 417 480 38,000  Level Salt Lake Center
Sun 10:58:57 PM 37.8103 -111.6344 282° West 417 480 38,000  Level Salt Lake Center
Sun 10:59:59 PM 37.8336 -111.7786 282° West 418 481 38,000  Level Salt Lake Center
Sun 11:01:00 PM 37.8586 -111.9225 282° West 421 484 38,000  Level Salt Lake Center
Sun 11:02:01 PM 37.8839 -112.0681 282° West 424 488 38,000  Level Salt Lake Center
Sun 11:03:02 PM 37.9094 -112.2136 283° West 426 490 38,000  Level Salt Lake Center
Sun 11:04:03 PM 37.9331 -112.3583 282° West 424 488 38,000  Level Salt Lake Center
Sun 11:05:05 PM 37.9564 -112.4986 282° West 414 476 38,000  Level Salt Lake Center
Sun 11:06:06 PM 37.9833 -112.6650 282° West 407 468 38,000  Level Salt Lake Center
Sun 11:07:07 PM 38.0061 -112.8039 282° West 406 467 38,000  Level Salt Lake Center
Sun 11:08:08 PM 38.0286 -112.9439 282° West 408 470 38,000  Level Salt Lake Center
Sun 11:09:09 PM 38.0506 -113.0844 281° West 410 472 38,000  Level Salt Lake Center
Sun 11:10:10 PM 38.0722 -113.2242 281° West 409 471 38,000  Level Salt Lake Center
Sun 11:11:11 PM 38.0944 -113.3642 281° West 408 470 38,000  Level Salt Lake Center
Sun 11:12:12 PM 38.1164 -113.5042 281° West 406 467 38,000  Level Salt Lake Center
Sun 11:13:13 PM 38.1286 -113.6483 276° West 411 473 38,000  Level Salt Lake Center
Sun 11:14:14 PM 38.1239 -113.8244 268° West 418 481 38,000  Level Salt Lake Center
Sun 11:15:15 PM 38.1225 -113.9736 269° West 424 488 38,000  Level Salt Lake Center
Sun 11:16:16 PM 38.1189 -114.1239 268° West 426 490 38,000  Level Salt Lake Center
Sun 11:17:17 PM 38.1164 -114.2722 269° West 422 486 38,000  Level Salt Lake Center
Sun 11:18:19 PM 38.1147 -114.4206 269° West 422 486 38,000  Level Salt Lake Center
Sun 11:19:20 PM 38.1106 -114.5700 268° West 425 489 38,000  Level Salt Lake Center
Sun 11:20:21 PM 38.1086 -114.7183 269° West 423 487 38,000  Level Salt Lake Center
Sun 11:21:22 PM 38.1047 -114.8678 268° West 424 488 38,000  Level Salt Lake Center
Sun 11:22:23 PM 38.1017 -115.0158 269° West 423 487 38,000  Level Salt Lake Center
Sun 11:23:24 PM 38.0983 -115.1639 268° West 421 484 38,000  Level Salt Lake Center
Sun 11:24:25 PM 38.0936 -115.3222 268° West 421 484 38,000  Level Salt Lake Center
Sun 11:25:26 PM 38.0897 -115.4725 268° West 424 488 38,000  Level Salt Lake Center
Sun 11:26:27 PM 38.0842 -115.6214 267° West 425 489 38,000  Level Salt Lake Center
Sun 11:27:28 PM 38.0803 -115.7711 268° West 424 488 38,000  Level Salt Lake Center
Sun 11:28:29 PM 38.0761 -115.9214 268° West 427 491 38,000  Level Salt Lake Center
Sun 11:29:30 PM 38.0711 -116.0708 268° West 425 489 38,000  Level Salt Lake Center
Sun 11:30:14 PM 38.0661 -116.1925 267° West 427 491 38,000  Level Oakland Center
Sun 11:30:31 PM 38.0644 -116.2525 268° West 430 495 38,000  Level Salt Lake Center
Sun 11:31:32 PM 38.0597 -116.4056 268° West 432 497 38,000  Level Salt Lake Center
Sun 11:32:33 PM 38.0536 -116.5589 267° West 435 501 38,000  Level Salt Lake Center
Sun 11:33:34 PM 38.0475 -116.7150 267° West 441 507 38,000  Level Salt Lake Center
Sun 11:34:35 PM 38.0417 -116.8694 267° West 438 504 38,000  Level Salt Lake Center
Sun 11:35:19 PM 38.0383 -116.9628 267° West 438 504 38,000  Level Oakland Center
Sun 11:36:20 PM 38.0314 -117.1183 267° West 435 501 38,000  Level Oakland Center
Sun 11:36:37 PM 38.0292 -117.1819 267° West 437 503 38,000  Level Salt Lake Center
Sun 11:37:21 PM 38.0247 -117.2778 267° West 438 504 38,000  Level Oakland Center
Sun 11:38:22 PM 38.0183 -117.4347 267° West 440 506 38,000  Level Oakland Center
Sun 11:39:23 PM 38.0117 -117.5892 267° West 437 503 38,000  Level Oakland Center
Sun 11:40:24 PM 38.0042 -117.7417 266° West 434 499 38,000  Level Oakland Center
Sun 11:41:25 PM 37.9900 -117.8958 263° West 441 507 38,000  Level Oakland Center
Sun 11:42:25 PM 37.9697 -118.0806 262° West 441 507 38,000  Level Oakland Center
Sun 11:43:26 PM 37.9533 -118.2336 262° West 440 506 38,000  Level Oakland Center
Sun 11:44:27 PM 37.9369 -118.3856 262° West 436 502 38,000  Level Oakland Center
Sun 11:45:28 PM 37.9214 -118.5361 263° West 434 499 38,000  Level Oakland Center
Sun 11:46:29 PM 37.9044 -118.6897 262° West 437 503 38,000  Level Oakland Center
Sun 11:47:30 PM 37.8889 -118.8417 263° West 435 501 38,000  Level Oakland Center
Sun 11:48:31 PM 37.8697 -118.9950 261° West 440 506 38,000  Level Oakland Center
Sun 11:49:32 PM 37.8525 -119.1458 262° West 443 510 38,000  Level Oakland Center
Sun 11:50:32 PM 37.8353 -119.3006 262° West 443 510 38,000  Level Oakland Center
Sun 11:51:33 PM 37.8164 -119.4531 261° West 441 507 38,000  Level Oakland Center
Sun 11:52:34 PM 37.7978 -119.6075 261° West 444 511 38,000 -492 Level Oakland Center
Sun 11:53:35 PM 37.7792 -119.7619 261° West 445 512 37,000 -1,672 Descending Oakland Center
Sun 11:54:36 PM 37.7611 -119.9161 262° West 444 511 34,600 -1,623 Descending Oakland Center
Sun 11:55:37 PM 37.7425 -120.0703 261° West 445 512 33,700 -942 Descending Oakland Center
Sun 11:56:37 PM 37.7225 -120.2261 261° West 448 516 32,700 -1,736 Descending Oakland Center
Sun 11:57:38 PM 37.7028 -120.3825 261° West 451 519 30,200 -2,902 Descending Oakland Center
Sun 11:58:39 PM 37.6783 -120.5686 261° West 448 516 26,800 -2,902 Descending Oakland Center
Sun 11:59:40 PM 37.6600 -120.7189 261° West 441 507 24,300 -2,410 Descending Oakland Center
Mon 12:00:41 AM 37.6392 -120.8625 260° West 428 493 21,900 -2,361 Descending Oakland Center
Mon 12:01:42 AM 37.6222 -120.9989 261° West 407 468 19,500 -2,033 Descending Oakland Center
Mon 12:02:42 AM 37.6036 -121.1233 259° West 372 428 17,800 -1,835 Descending Oakland Center
Mon 12:03:43 AM 37.5306 -121.1950 218° Southwest 348 400 15,800 -1,918 Descending Oakland Center
Mon 12:04:44 AM 37.4822 -121.2869 236° Southwest 340 391 13,900 -1,721 Descending Oakland Center
Mon 12:05:45 AM 37.5169 -121.3844 294° West 302 348 12,300 -984 Descending Oakland Center
Mon 12:06:46 AM 37.5225 -121.4828 274° West 286 329 11,900 -634 Descending Oakland Center
Mon 12:07:48 AM 37.5167 -121.5833 266° West 248 285 11,000 -885 Descending Northern Cal TRACON
Mon 12:08:48 AM 37.5000 -121.6667 256° West 243 280 10,100 -1,050 Descending Northern Cal TRACON
Mon 12:09:48 AM 37.5000 -121.7500 270° West 248 285 8,900 -1,050 Descending Northern Cal TRACON
Mon 12:10:48 AM 37.4833 -121.8333 256° West 243 280 8,000 -450 Descending Northern Cal TRACON
Mon 12:11:48 AM 37.4833 -121.9167 270° West 242 278 8,000 -474 Level Northern Cal TRACON
Mon 12:12:42 AM 37.5000 -121.9833 288° West 237 273 7,100 -1,500 Descending Northern Cal TRACON
Mon 12:13:48 AM 37.5167 -122.0667 284° West 237 273 5,000 -1,476 Descending Northern Cal TRACON
Mon 12:14:48 AM 37.5500 -122.1333 302° West 197 227 4,000 -1,100 Descending Northern Cal TRACON
Mon 12:15:48 AM 37.5667 -122.2000 288° West 178 205 2,800 -1,158 Descending Northern Cal TRACON
Mon 12:16:42 AM 37.5667 -122.2500 270° West 150 173 1,800 -895 Descending Northern Cal TRACON
Mon 12:17:42 AM 37.5833 -122.3000 293° West 144 166 1,100 -714 Descending Northern Cal TRACON
Mon 12:18:48 AM 37.6000 -122.3500 293° West 144 166 300 -48 Descending Northern Cal TRACON
Mon 12:19:48 AM 37.6167 -122.3833 302° West 154 177 1,000 1,105 Climbing Northern Cal TRACON
Mon 12:20:42 AM 37.6500 -122.4333 310° West 197 227 2,400 1,000 Climbing Northern Cal TRACON
Mon 12:21:48 AM 37.6833 -122.5167 297° West 226 260 3,000 762 Climbing Northern Cal TRACON
Mon 12:22:48 AM 37.6833 -122.5833 270° West 232 267 4,000 900 Climbing Northern Cal TRACON
Mon 12:23:48 AM 37.6333 -122.5833 180° South 234 269 4,800 500 Climbing Northern Cal TRACON
Mon 12:24:48 AM 37.5833 -122.5333 142° Southeast 207 238 5,000 100 Climbing Northern Cal TRACON
Mon 12:25:48 AM 37.5500 -122.4833 130° Southeast 196 226 5,000  Level Northern Cal TRACON
Mon 12:26:03 AM 37.5450 -122.4700 115° Southeast 197 227 5,000  Level Oakland Center
Mon 12:27:03 AM 37.5192 -122.4100 118° Southeast 194 223 5,000  Level Oakland Center
Mon 12:28:04 AM 37.4939 -122.3489 118° Southeast 196 226 5,000  Level Oakland Center
Mon 12:29:05 AM 37.4617 -122.2789 120° Southeast 194 223 5,000 -393 Level Oakland Center
Mon 12:30:06 AM 37.4483 -122.2139 104° East 195 224 4,200 -492 Descending Oakland Center
Mon 12:31:07 AM 37.4781 -122.1694 50° Northeast 179 206 4,000 -197 Descending Oakland Center
Mon 12:32:08 AM 37.5239 -122.1769 353° North 182 209 3,800 -843 Descending Oakland Center
Mon 12:33:08 AM 37.5556 -122.2261 309° West 183 211 2,300 -1,190 Descending Oakland Center
Mon 12:34:09 AM 37.5756 -122.2742 298° West 169 194 1,400 -787 Descending Oakland Center
Mon 12:35:10 AM 37.5925 -122.3172 296° West 153 176 700 -689 Descending Oakland Center

Login

Don't have an account? Register now (free) for customized features, flight alerts, and more!